createdAt,value
2018-05-26T00:00:00.973Z,81.90
2018-05-26T00:02:28.513Z,82.10
2018-05-26T00:04:55.968Z,82.10
2018-05-26T00:07:24.161Z,82.60
2018-05-26T00:09:51.640Z,82.60
2018-05-26T00:12:19.865Z,83.50
2018-05-26T00:14:47.332Z,83.40
2018-05-26T00:17:14.796Z,83.50
2018-05-26T00:19:42.884Z,83.60
2018-05-26T00:22:10.376Z,84.20
2018-05-26T00:24:37.824Z,83.90
2018-05-26T00:27:05.298Z,83.90
2018-05-26T00:29:32.761Z,84.40
2018-05-26T00:32:00.197Z,84.30
2018-05-26T00:34:27.664Z,84.50
2018-05-26T00:36:55.100Z,84.50
2018-05-26T00:39:22.564Z,84.90
2018-05-26T00:41:50.052Z,85.00
2018-05-26T00:44:18.268Z,85.50
2018-05-26T00:46:45.752Z,85.30
2018-05-26T00:49:13.956Z,86.00
2018-05-26T00:51:42.205Z,86.00
2018-05-26T00:54:09.648Z,86.00
2018-05-26T00:56:37.113Z,86.30
2018-05-26T00:59:04.557Z,86.60
2018-05-26T01:01:31.997Z,86.60
2018-05-26T01:03:59.472Z,86.60
2018-05-26T01:06:26.925Z,86.60
2018-05-26T01:08:54.388Z,86.90
2018-05-26T01:11:21.841Z,87.00
2018-05-26T01:13:49.316Z,87.20
2018-05-26T01:16:16.773Z,87.30
2018-05-26T01:18:44.240Z,87.60
2018-05-26T01:21:11.688Z,87.60
2018-05-26T01:23:39.150Z,87.70
2018-05-26T01:26:06.613Z,88.00
2018-05-26T01:28:34.044Z,88.10
2018-05-26T01:31:01.524Z,88.30
2018-05-26T01:33:28.973Z,88.30
2018-05-26T01:35:56.449Z,88.40
2018-05-26T01:38:23.889Z,88.30
2018-05-26T01:40:51.353Z,88.40
2018-05-26T01:43:18.808Z,88.50
2018-05-26T01:45:46.256Z,88.50
2018-05-26T01:48:13.720Z,88.60
2018-05-26T01:50:41.172Z,88.50
2018-05-26T01:53:08.632Z,88.60
2018-05-26T01:55:36.094Z,88.60
2018-05-26T01:58:03.545Z,88.60
2018-05-26T02:00:31.001Z,88.60
2018-05-26T02:02:58.444Z,88.90
2018-05-26T02:05:25.917Z,89.00
2018-05-26T02:07:53.404Z,89.00
2018-05-26T02:10:21.660Z,89.10
2018-05-26T02:12:49.115Z,89.10
2018-05-26T02:15:16.656Z,89.10
2018-05-26T02:17:44.933Z,89.10
2018-05-26T02:20:12.409Z,89.00
2018-05-26T02:22:39.889Z,89.00
2018-05-26T02:25:08.144Z,89.10
2018-05-26T02:27:35.628Z,89.00
2018-05-26T02:30:03.929Z,89.10
2018-05-26T02:32:31.424Z,89.10
2018-05-26T02:34:58.893Z,89.10
2018-05-26T02:37:26.371Z,89.00
2018-05-26T02:39:54.629Z,89.10
2018-05-26T02:42:22.105Z,89.10
2018-05-26T02:44:49.569Z,89.20
2018-05-26T02:47:17.063Z,89.10
2018-05-26T02:49:44.532Z,89.30
2018-05-26T02:52:12.045Z,89.20
2018-05-26T02:54:40.309Z,89.40
2018-05-26T02:57:08.556Z,89.30
2018-05-26T02:59:36.045Z,89.30
2018-05-26T03:02:04.268Z,89.30
2018-05-26T03:04:37.448Z,89.30
2018-05-26T03:07:10.618Z,89.40
2018-05-26T03:09:43.703Z,89.40
2018-05-26T03:12:16.987Z,89.60
2018-05-26T03:14:46.941Z,89.60
2018-05-26T03:17:16.905Z,89.60
2018-05-26T03:19:45.179Z,89.80
2018-05-26T03:22:13.404Z,89.80
2018-05-26T03:24:40.915Z,89.80
2018-05-26T03:27:09.141Z,90.00
2018-05-26T03:29:36.620Z,90.00
2018-05-26T03:32:04.104Z,90.00
2018-05-26T03:34:32.559Z,90.00
2018-05-26T03:37:00.021Z,90.00
2018-05-26T03:39:27.487Z,90.00
2018-05-26T03:41:54.972Z,90.10
2018-05-26T03:44:22.449Z,90.10
2018-05-26T03:46:49.949Z,90.00
2018-05-26T03:49:17.404Z,90.00
2018-05-26T03:51:44.888Z,90.20
2018-05-26T03:54:12.353Z,90.20
2018-05-26T03:56:51.577Z,90.10
2018-05-26T04:02:15.552Z,90.30
2018-05-26T04:04:43.008Z,90.20
2018-05-26T04:07:10.489Z,90.20
2018-05-26T04:09:38.720Z,90.40
2018-05-26T04:12:06.219Z,90.30
2018-05-26T04:14:34.513Z,90.40
2018-05-26T04:17:02.008Z,90.40
2018-05-26T04:19:29.468Z,90.40
2018-05-26T04:21:56.949Z,90.40
2018-05-26T04:24:24.787Z,90.40
2018-05-26T04:26:52.260Z,90.40
2018-05-26T04:29:19.733Z,90.50
2018-05-26T04:31:47.229Z,90.50
2018-05-26T04:34:14.789Z,90.50
2018-05-26T04:36:42.256Z,90.50
2018-05-26T04:39:09.736Z,90.50
2018-05-26T04:41:37.201Z,90.50
2018-05-26T04:44:04.686Z,90.50
2018-05-26T04:46:32.136Z,90.50
2018-05-26T04:49:00.394Z,90.60
2018-05-26T04:51:27.872Z,90.60
2018-05-26T04:53:56.121Z,90.60
2018-05-26T04:56:23.576Z,90.60
2018-05-26T04:58:51.069Z,90.60
2018-05-26T05:01:19.316Z,90.60
2018-05-26T05:03:46.778Z,90.60
2018-05-26T05:06:14.258Z,90.70
2018-05-26T05:08:41.708Z,90.70
2018-05-26T05:11:09.965Z,90.70
2018-05-26T05:13:37.424Z,90.70
2018-05-26T05:16:04.905Z,90.70
2018-05-26T05:18:33.116Z,90.80
2018-05-26T05:21:00.669Z,90.80
2018-05-26T05:23:28.168Z,90.80
2018-05-26T05:25:55.656Z,90.80
2018-05-26T05:28:23.880Z,90.90
2018-05-26T05:30:52.139Z,90.90
2018-05-26T05:33:19.608Z,90.80
2018-05-26T05:35:47.105Z,90.70
2018-05-26T05:38:14.604Z,90.70
2018-05-26T05:40:42.081Z,90.70
2018-05-26T05:43:09.535Z,90.70
2018-05-26T05:45:37.050Z,90.60
2018-05-26T05:48:05.272Z,90.60
2018-05-26T05:50:32.759Z,90.60
2018-05-26T05:53:00.216Z,90.50
2018-05-26T05:55:27.717Z,90.50
2018-05-26T05:57:55.185Z,90.40
2018-05-26T06:00:22.672Z,90.40
2018-05-26T06:02:50.904Z,90.40
2018-05-26T06:05:18.417Z,90.40
2018-05-26T06:07:45.885Z,90.30
2018-05-26T06:10:13.364Z,90.30
2018-05-26T06:12:41.633Z,90.00
2018-05-26T06:15:09.940Z,89.90
2018-05-26T06:17:38.148Z,89.80
2018-05-26T06:20:06.392Z,89.70
2018-05-26T06:22:33.876Z,89.70
2018-05-26T06:25:01.374Z,89.30
2018-05-26T06:27:29.589Z,88.90
2018-05-26T06:29:57.093Z,88.90
2018-05-26T06:32:24.554Z,88.50
2018-05-26T06:34:52.777Z,88.40
2018-05-26T06:37:20.327Z,87.60
2018-05-26T06:39:50.752Z,86.90
2018-05-26T06:42:18.233Z,86.50
2018-05-26T06:44:45.734Z,86.20
2018-05-26T06:47:13.952Z,85.40
2018-05-26T06:49:41.476Z,85.30
2018-05-26T06:52:09.716Z,84.70
2018-05-26T06:54:37.164Z,84.70
2018-05-26T06:57:04.717Z,84.40
2018-05-26T06:59:32.188Z,84.20
2018-05-26T07:01:59.652Z,83.90
2018-05-26T07:04:27.128Z,83.20
2018-05-26T07:06:55.373Z,81.80
2018-05-26T07:09:22.877Z,81.80
2018-05-26T07:11:51.137Z,80.00
2018-05-26T07:14:18.654Z,80.10
2018-05-26T07:16:46.165Z,79.30
2018-05-26T07:19:13.669Z,78.80
2018-05-26T07:21:41.156Z,78.30
2018-05-26T07:24:08.692Z,78.00
2018-05-26T07:26:36.195Z,77.30
2018-05-26T07:29:04.428Z,76.80
2018-05-26T07:31:31.890Z,76.70
2018-05-26T07:33:59.341Z,76.60
2018-05-26T07:36:26.865Z,75.90
2018-05-26T07:38:54.331Z,75.40
2018-05-26T07:41:21.804Z,75.10
2018-05-26T07:43:49.276Z,75.10
2018-05-26T07:46:16.877Z,74.10
2018-05-26T07:48:44.372Z,73.40
2018-05-26T07:51:12.177Z,73.40
2018-05-26T07:53:39.666Z,72.80
2018-05-26T07:56:07.885Z,70.20
2018-05-26T07:58:35.577Z,70.20
2018-05-26T08:01:03.041Z,70.00
2018-05-26T08:03:30.533Z,69.60
2018-05-26T08:05:57.993Z,69.10
2018-05-26T08:08:25.469Z,68.30
2018-05-26T08:10:52.926Z,67.60
2018-05-26T08:13:20.411Z,67.10
2018-05-26T08:15:47.901Z,66.10
2018-05-26T08:18:16.205Z,65.00
2018-05-26T08:20:43.679Z,65.00
2018-05-26T08:23:11.171Z,65.00
2018-05-26T08:25:38.657Z,65.40
2018-05-26T08:28:06.156Z,65.70
2018-05-26T08:30:34.419Z,64.30
2018-05-26T08:33:01.893Z,64.30
2018-05-26T08:35:29.356Z,63.50
2018-05-26T08:37:56.860Z,62.40
2018-05-26T08:40:24.313Z,61.30
2018-05-26T08:42:51.806Z,60.20
2018-05-26T08:45:19.281Z,59.20
2018-05-26T08:47:46.760Z,57.90
2018-05-26T08:50:14.244Z,57.00
2018-05-26T08:52:42.581Z,53.80
2018-05-26T08:55:10.060Z,53.60
2018-05-26T08:57:37.544Z,53.60
2018-05-26T09:00:05.021Z,52.50
2018-05-26T09:02:32.510Z,51.30
2018-05-26T09:04:59.992Z,49.80
2018-05-26T09:07:28.313Z,48.40
2018-05-26T09:09:55.773Z,48.20
2018-05-26T09:12:24.132Z,45.90
2018-05-26T09:14:51.658Z,45.90
2018-05-26T09:17:19.144Z,45.50
2018-05-26T09:19:46.621Z,45.20
2018-05-26T09:22:14.124Z,44.50
2018-05-26T09:24:41.585Z,44.50
2018-05-26T09:27:09.864Z,43.80
2018-05-26T09:29:37.370Z,43.70
2018-05-26T09:32:04.918Z,43.60
2018-05-26T09:34:32.420Z,42.50
2018-05-26T09:36:59.869Z,41.50
2018-05-26T09:39:27.821Z,40.90
2018-05-26T09:41:55.282Z,40.40
2018-05-26T09:44:22.760Z,40.20
2018-05-26T09:46:50.280Z,40.30
2018-05-26T09:49:17.744Z,40.20
2018-05-26T09:51:45.224Z,39.80
2018-05-26T09:54:12.684Z,40.30
2018-05-26T09:56:40.156Z,41.00
2018-05-26T09:59:07.607Z,40.60
2018-05-26T10:01:35.080Z,40.00
2018-05-26T10:04:02.570Z,39.90
2018-05-26T10:06:30.044Z,39.50
2018-05-26T10:08:57.541Z,39.70
2018-05-26T10:11:24.998Z,39.60
2018-05-26T10:13:52.467Z,39.50
2018-05-26T10:16:20.736Z,39.20
2018-05-26T10:18:49.724Z,39.30
2018-05-26T10:21:17.185Z,39.30
2018-05-26T10:23:44.641Z,40.00
2018-05-26T10:26:12.118Z,40.50
2018-05-26T10:28:40.336Z,40.60
2018-05-26T10:31:07.828Z,40.60
2018-05-26T10:33:35.289Z,40.60
2018-05-26T10:36:02.793Z,40.50
2018-05-26T10:38:30.234Z,40.70
2018-05-26T10:40:59.926Z,40.80
2018-05-26T10:43:27.441Z,40.70
2018-05-26T10:46:06.697Z,40.90
2018-05-26T10:48:34.156Z,40.50
2018-05-26T10:51:01.627Z,39.70
2018-05-26T10:53:29.108Z,39.60
2018-05-26T10:55:56.665Z,39.00
2018-05-26T10:58:24.072Z,38.30
2018-05-26T11:00:51.553Z,37.70
2018-05-26T11:03:19.029Z,37.00
2018-05-26T11:05:47.443Z,37.00
2018-05-26T11:08:14.953Z,37.00
2018-05-26T11:10:42.404Z,36.70
2018-05-26T11:13:09.872Z,36.40
2018-05-26T11:15:38.128Z,35.60
2018-05-26T11:18:05.578Z,35.50
2018-05-26T11:20:33.082Z,35.10
2018-05-26T11:23:00.540Z,34.50
2018-05-26T11:25:28.047Z,34.30
2018-05-26T11:27:55.533Z,34.20
2018-05-26T11:30:23.825Z,33.20
2018-05-26T11:32:51.272Z,33.00
2018-05-26T11:35:19.529Z,31.60
2018-05-26T11:37:46.976Z,31.50
2018-05-26T11:40:14.508Z,30.70
2018-05-26T11:42:41.993Z,30.50
2018-05-26T11:45:09.472Z,30.30
2018-05-26T11:47:37.008Z,30.00
2018-05-26T11:50:04.468Z,29.50
2018-05-26T11:52:31.929Z,29.30
2018-05-26T11:54:59.409Z,29.10
2018-05-26T11:57:27.690Z,28.80
2018-05-26T11:59:55.145Z,28.70
2018-05-26T12:02:23.390Z,28.40
2018-05-26T12:04:50.867Z,28.40
2018-05-26T12:07:19.085Z,28.30
2018-05-26T12:09:46.591Z,28.30
2018-05-26T12:12:14.081Z,27.80
2018-05-26T12:14:41.574Z,27.50
2018-05-26T12:17:09.072Z,27.50
2018-05-26T12:19:36.528Z,27.20
2018-05-26T12:22:03.996Z,27.10
2018-05-26T12:24:32.276Z,27.00
2018-05-26T12:27:00.013Z,26.90
2018-05-26T12:29:27.504Z,26.90
2018-05-26T12:31:54.981Z,26.90
2018-05-26T12:34:22.439Z,27.10
2018-05-26T12:36:49.932Z,27.10
2018-05-26T12:39:17.402Z,27.00
2018-05-26T12:41:44.859Z,27.20
2018-05-26T12:44:12.340Z,27.30
2018-05-26T12:46:40.571Z,26.80
2018-05-26T12:49:08.099Z,26.60
2018-05-26T12:51:35.551Z,26.80
2018-05-26T12:54:03.041Z,27.00
2018-05-26T12:56:30.553Z,26.90
2018-05-26T12:58:58.032Z,26.80
2018-05-26T13:01:25.513Z,26.90
2018-05-26T13:03:52.996Z,27.00
2018-05-26T13:06:20.480Z,27.00
2018-05-26T13:08:47.949Z,26.90
2018-05-26T13:11:16.217Z,27.20
2018-05-26T13:13:44.441Z,27.00
2018-05-26T13:16:12.072Z,27.00
2018-05-26T13:18:39.576Z,27.20
2018-05-26T13:21:07.056Z,27.10
2018-05-26T13:23:35.272Z,26.90
2018-05-26T13:26:02.753Z,26.80
2018-05-26T13:28:30.257Z,26.80
2018-05-26T13:30:57.736Z,26.50
2018-05-26T13:33:25.201Z,26.30
2018-05-26T13:35:52.704Z,26.40
2018-05-26T13:38:20.165Z,26.50
2018-05-26T13:40:47.613Z,26.60
2018-05-26T13:43:15.109Z,25.60
2018-05-26T13:45:42.560Z,25.90
2018-05-26T13:48:10.033Z,25.80
2018-05-26T13:50:37.578Z,25.70
2018-05-26T13:53:05.029Z,25.60
2018-05-26T13:55:32.475Z,25.10
2018-05-26T13:57:59.961Z,25.10
2018-05-26T14:00:27.436Z,25.30
2018-05-26T14:02:55.655Z,25.90
2018-05-26T14:05:23.895Z,25.90
2018-05-26T14:07:51.369Z,25.90
2018-05-26T14:10:18.849Z,25.80
2018-05-26T14:12:47.068Z,26.20
2018-05-26T14:15:14.543Z,26.10
2018-05-26T14:17:41.991Z,26.20
2018-05-26T14:20:09.492Z,26.30
2018-05-26T14:22:37.718Z,27.00
2018-05-26T14:25:05.225Z,27.00
2018-05-26T14:27:32.673Z,27.70
2018-05-26T14:30:00.124Z,27.70
2018-05-26T14:32:27.604Z,28.00
2018-05-26T14:34:55.067Z,27.90
2018-05-26T14:37:22.536Z,27.70
2018-05-26T14:39:50.039Z,27.90
2018-05-26T14:42:17.476Z,28.20
2018-05-26T14:44:44.924Z,28.20
2018-05-26T14:47:12.432Z,28.40
2018-05-26T14:49:39.916Z,28.60
2018-05-26T14:52:07.376Z,28.80
2018-05-26T14:54:35.642Z,30.10
2018-05-26T14:57:03.858Z,30.90
2018-05-26T14:59:31.312Z,30.90
2018-05-26T15:01:58.788Z,31.70
2018-05-26T15:04:26.300Z,32.40
2018-05-26T15:06:53.792Z,33.40
2018-05-26T15:09:21.301Z,35.10
2018-05-26T15:11:49.560Z,36.50
2018-05-26T15:14:17.042Z,36.40
2018-05-26T15:16:44.532Z,37.20
2018-05-26T15:19:11.985Z,37.70
2018-05-26T15:21:39.468Z,38.30
2018-05-26T15:24:07.100Z,38.80
2018-05-26T15:26:34.559Z,39.30
2018-05-26T15:29:02.038Z,39.40
2018-05-26T15:31:29.492Z,39.80
2018-05-26T15:33:57.008Z,39.80
2018-05-26T15:36:25.324Z,41.10
2018-05-26T15:38:52.788Z,41.00
2018-05-26T15:41:20.293Z,41.50
2018-05-26T15:43:48.701Z,42.10
2018-05-26T15:46:16.182Z,42.00
2018-05-26T15:48:43.636Z,42.00
2018-05-26T15:51:11.116Z,42.50
2018-05-26T15:53:38.565Z,42.60
2018-05-26T15:56:06.065Z,43.10
2018-05-26T15:58:34.289Z,43.50
2018-05-26T16:01:01.738Z,43.50
2018-05-26T16:03:29.288Z,43.60
2018-05-26T16:05:57.043Z,43.70
2018-05-26T16:08:24.516Z,43.90
2018-05-26T16:10:51.971Z,43.90
2018-05-26T16:13:19.430Z,44.20
2018-05-26T16:15:46.905Z,44.50
2018-05-26T16:18:14.364Z,44.80
2018-05-26T16:20:43.592Z,44.90
2018-05-26T16:23:11.052Z,44.80
2018-05-26T16:25:38.540Z,45.00
2018-05-26T16:28:06.116Z,45.20
2018-05-26T16:30:33.584Z,45.80
2018-05-26T16:33:01.134Z,45.80
2018-05-26T16:35:28.642Z,46.20
2018-05-26T16:37:56.117Z,46.60
2018-05-26T16:40:23.609Z,46.80
2018-05-26T16:42:52.001Z,47.80
2018-05-26T16:45:19.502Z,47.80
2018-05-26T16:47:47.742Z,48.50
2018-05-26T16:50:15.240Z,48.50
2018-05-26T16:52:43.466Z,49.00
2018-05-26T16:55:10.964Z,49.00
2018-05-26T16:57:39.187Z,49.40
2018-05-26T17:00:06.656Z,49.30
2018-05-26T17:02:34.113Z,49.40
2018-05-26T17:05:01.613Z,49.70
2018-05-26T17:07:29.844Z,50.00
2018-05-26T17:09:57.300Z,50.00
2018-05-26T17:12:24.848Z,50.20
2018-05-26T17:14:52.325Z,50.00
2018-05-26T17:17:19.828Z,50.10
2018-05-26T17:19:48.074Z,50.10
2018-05-26T17:22:15.523Z,50.10
2018-05-26T17:24:42.981Z,50.00
2018-05-26T17:27:10.480Z,49.80
2018-05-26T17:29:37.940Z,49.90
2018-05-26T17:32:05.464Z,50.00
2018-05-26T17:34:32.908Z,50.00
2018-05-26T17:37:00.365Z,50.30
2018-05-26T17:39:27.851Z,50.20
2018-05-26T17:41:56.085Z,50.50
2018-05-26T17:44:23.528Z,50.40
2018-05-26T17:46:51.016Z,50.60
2018-05-26T17:49:18.469Z,51.10
2018-05-26T17:51:45.969Z,51.40
2018-05-26T17:54:13.456Z,51.30
2018-05-26T17:56:40.945Z,51.60
2018-05-26T17:59:08.433Z,51.60
2018-05-26T18:01:36.721Z,52.50
2018-05-26T18:04:04.201Z,52.50
2018-05-26T18:06:31.658Z,53.10
2018-05-26T18:08:59.140Z,54.10
2018-05-26T18:11:26.609Z,54.40
2018-05-26T18:13:54.080Z,54.70
2018-05-26T18:16:21.536Z,54.70
2018-05-26T18:18:49.050Z,55.00
2018-05-26T18:21:16.533Z,55.00
2018-05-26T18:23:44.776Z,55.80
2018-05-26T18:26:12.253Z,55.80
2018-05-26T18:28:39.720Z,55.60
2018-05-26T18:31:07.196Z,55.60
2018-05-26T18:33:34.644Z,55.70
2018-05-26T18:36:02.144Z,56.10
2018-05-26T18:38:29.652Z,56.10
2018-05-26T18:40:57.110Z,56.30
2018-05-26T18:43:24.589Z,56.40
2018-05-26T18:45:52.848Z,57.20
2018-05-26T18:48:20.316Z,56.50
2018-05-26T18:50:47.792Z,56.50
2018-05-26T18:53:16.136Z,57.30
2018-05-26T18:55:43.605Z,57.30
2018-05-26T18:58:11.084Z,57.50
2018-05-26T19:00:38.556Z,57.40
2018-05-26T19:03:06.021Z,57.40
2018-05-26T19:05:34.092Z,57.80
2018-05-26T19:08:01.562Z,57.60
2018-05-26T19:10:29.053Z,57.60
2018-05-26T19:12:56.500Z,57.60
2018-05-26T19:15:23.982Z,57.70
2018-05-26T19:17:51.453Z,57.70
2018-05-26T19:20:19.700Z,58.00
2018-05-26T19:22:47.172Z,58.00
2018-05-26T19:25:15.425Z,58.20
2018-05-26T19:27:42.892Z,58.00
2018-05-26T19:30:10.385Z,58.10
2018-05-26T19:32:37.831Z,58.20
2018-05-26T19:35:06.066Z,58.50
2018-05-26T19:37:33.544Z,58.40
2018-05-26T19:40:01.065Z,58.60
2018-05-26T19:42:28.565Z,58.80
2018-05-26T19:44:56.004Z,59.10
2018-05-26T19:47:23.525Z,59.00
2018-05-26T19:49:51.070Z,59.10
2018-05-26T19:52:19.529Z,59.60
2018-05-26T19:54:47.992Z,59.80
2018-05-26T19:57:16.258Z,59.80
2018-05-26T19:59:43.761Z,59.80
2018-05-26T20:02:11.985Z,60.30
2018-05-26T20:04:39.464Z,60.30
2018-05-26T20:07:06.940Z,60.50
2018-05-26T20:09:35.169Z,61.30
2018-05-26T20:12:02.646Z,61.30
2018-05-26T20:14:30.881Z,61.90
2018-05-26T20:16:58.344Z,61.90
2018-05-26T20:19:25.800Z,62.00
2018-05-26T20:21:54.589Z,62.30
2018-05-26T20:24:22.098Z,62.70
2018-05-26T20:26:49.553Z,63.00
2018-05-26T20:29:16.997Z,63.50
2018-05-26T20:31:44.477Z,63.70
2018-05-26T20:34:11.981Z,64.00
2018-05-26T20:36:39.461Z,64.30
2018-05-26T20:39:06.941Z,64.70
2018-05-26T20:41:35.218Z,65.10
2018-05-26T20:44:02.685Z,65.10
2018-05-26T20:46:30.932Z,65.30
2018-05-26T20:48:58.408Z,65.30
2018-05-26T20:51:25.876Z,65.60
2018-05-26T20:53:54.104Z,66.00
2018-05-26T20:56:21.590Z,66.00
2018-05-26T20:58:49.070Z,66.10
2018-05-26T21:01:16.595Z,66.20
2018-05-26T21:03:44.049Z,66.50
2018-05-26T21:06:11.536Z,66.90
2018-05-26T21:08:39.042Z,66.90
2018-05-26T21:11:06.497Z,66.90
2018-05-26T21:13:33.956Z,67.30
2018-05-26T21:16:01.463Z,67.80
2018-05-26T21:18:29.741Z,68.30
2018-05-26T21:20:57.964Z,68.50
2018-05-26T21:23:25.424Z,68.50
2018-05-26T21:25:52.903Z,68.70
2018-05-26T21:28:20.361Z,69.20
2018-05-26T21:30:48.612Z,70.00
2018-05-26T21:33:16.828Z,70.10
2018-05-26T21:35:44.308Z,70.80
2018-05-26T21:38:11.773Z,70.40
2018-05-26T21:40:39.224Z,70.50
2018-05-26T21:43:06.718Z,70.80
2018-05-26T21:45:34.261Z,71.10
2018-05-26T21:48:01.740Z,71.50
2018-05-26T21:50:29.196Z,71.70
2018-05-26T21:52:56.676Z,71.90
2018-05-26T21:55:24.136Z,72.20
2018-05-26T21:57:51.617Z,72.50
2018-05-26T22:00:19.844Z,72.90
2018-05-26T22:02:47.329Z,72.90
2018-05-26T22:05:14.808Z,73.20
2018-05-26T22:07:43.085Z,73.60
2018-05-26T22:10:12.185Z,73.70
2018-05-26T22:12:39.665Z,73.70
2018-05-26T22:15:07.148Z,73.90
2018-05-26T22:17:34.720Z,73.90
2018-05-26T22:20:02.206Z,74.10
2018-05-26T22:22:29.660Z,74.50
2018-05-26T22:24:57.155Z,74.80
2018-05-26T22:27:25.376Z,74.80
2018-05-26T22:29:52.864Z,74.80
2018-05-26T22:32:21.088Z,75.00
2018-05-26T22:34:48.579Z,74.90
2018-05-26T22:37:16.080Z,75.20
2018-05-26T22:39:43.576Z,75.30
2018-05-26T22:42:11.047Z,75.30
2018-05-26T22:44:38.544Z,75.70
2018-05-26T22:47:06.020Z,75.80
2018-05-26T22:49:33.497Z,75.90
2018-05-26T22:52:00.956Z,76.00
2018-05-26T22:54:28.436Z,76.00
2018-05-26T22:56:55.892Z,76.30
2018-05-26T22:59:24.145Z,76.60
2018-05-26T23:01:51.640Z,76.60
2018-05-26T23:04:19.108Z,76.90
2018-05-26T23:06:46.659Z,76.90
2018-05-26T23:09:14.151Z,76.80
2018-05-26T23:11:41.627Z,76.90
2018-05-26T23:14:09.073Z,77.10
2018-05-26T23:16:36.558Z,77.30
2018-05-26T23:19:04.021Z,77.40
2018-05-26T23:21:31.514Z,77.70
2018-05-26T23:23:58.965Z,78.60
2018-05-26T23:26:26.446Z,77.90
2018-05-26T23:28:53.915Z,78.20
2018-05-26T23:31:21.400Z,78.50
2018-05-26T23:33:48.867Z,78.50
2018-05-26T23:36:16.329Z,78.90
2018-05-26T23:38:44.613Z,79.40
2018-05-26T23:41:12.839Z,79.70
2018-05-26T23:43:41.064Z,79.70
2018-05-26T23:46:09.321Z,80.10
2018-05-26T23:48:36.820Z,80.10
2018-05-26T23:51:04.256Z,80.00
2018-05-26T23:53:31.714Z,80.40
2018-05-26T23:55:59.196Z,80.80
2018-05-26T23:58:26.657Z,80.90
